Time;durP1;ratioP1;P1;durP2;ratioP2;P2;SDS_P1;SDS_P2;PMS_P1;PMS_P2;Temp;Humidity;BMP_temperature;BMP_pressure;BME280_temperature;BME280_humidity;BME280_pressure;Samples;Min_cycle;Max_cycle;Signal;HPM_P1;HPM_P2
2021/12/24 00:01:09;;;;;;;31.00;14.03;;;;;;;18.43;48.83;100487.56;5046166;28;20495;-69
2021/12/24 00:03:35;;;;;;;26.40;12.23;;;;;;;18.52;49.84;100488.91;5050544;28;20024;-70
2021/12/24 00:06:03;;;;;;;26.07;11.33;;;;;;;19.06;48.09;100494.22;5065433;28;20098;-70
2021/12/24 00:08:29;;;;;;;28.27;12.23;;;;;;;18.28;48.73;100486.50;5049100;28;20036;-70
2021/12/24 00:11:00;;;;;;;27.17;12.00;;;;;;;18.64;49.70;100477.72;5047034;28;20500;-70
2021/12/24 00:13:28;;;;;;;28.50;11.20;;;;;;;19.19;47.57;100477.69;5055683;28;20029;-70
2021/12/24 00:18:32;;;;;;;23.93;11.43;;;;;;;19.10;48.23;100479.88;5055860;28;20127;-70
2021/12/24 00:37:01;;;;;;;24.57;10.60;;;;;;;19.69;47.88;100463.56;5051908;28;20051;-70
2021/12/24 00:39:26;;;;;;;21.47;10.43;;;;;;;19.35;48.13;100472.47;5069661;28;20396;-70
2021/12/24 00:41:52;;;;;;;30.37;9.90;;;;;;;18.55;50.88;100472.88;5044417;28;20111;-70
2021/12/24 00:44:17;;;;;;;25.53;11.07;;;;;;;20.04;47.09;100471.41;5044059;28;20111;-70
2021/12/24 00:46:42;;;;;;;24.17;10.93;;;;;;;19.83;47.62;100473.44;5041013;28;20033;-70
2021/12/24 00:49:08;;;;;;;21.20;10.90;;;;;;;18.96;50.10;100477.09;5060544;28;20546;-70
2021/12/24 00:56:55;;;;;;;25.80;11.13;;;;;;;18.36;53.99;100472.06;5061594;28;20098;-70
2021/12/24 00:59:20;;;;;;;26.30;12.40;;;;;;;19.02;51.17;100476.75;5062920;28;20037;-70
2021/12/24 01:01:46;;;;;;;26.63;11.77;;;;;;;18.87;51.19;100477.50;5054359;28;20020;-70
2021/12/24 01:04:11;;;;;;;26.23;10.80;;;;;;;18.05;53.75;100487.59;5060818;28;20031;-71
2021/12/24 01:06:37;;;;;;;22.00;10.50;;;;;;;17.37;57.03;100477.41;5052261;28;20029;-70
2021/12/24 01:09:03;;;;;;;23.77;11.70;;;;;;;18.14;55.22;100478.38;5053988;28;20458;-70
2021/12/24 01:11:30;;;;;;;26.07;10.60;;;;;;;17.89;56.57;100478.66;5059233;28;20037;-70
2021/12/24 01:13:57;;;;;;;24.30;11.30;;;;;;;18.84;52.45;100477.66;5047523;28;20104;-70
2021/12/24 01:16:30;;;;;;;31.70;10.77;;;;;;;18.74;52.64;100478.13;5055474;28;20321;-70
2021/12/24 01:24:02;;;;;;;35.00;12.77;;;;;;;19.04;52.12;100474.03;5072177;28;20493;-70
2021/12/24 01:40:20;;;;;;;24.30;8.87;;;;;;;18.67;53.35;100487.31;5058438;28;20055;-70
2021/12/24 01:42:47;;;;;;;31.20;9.93;;;;;;;17.86;57.28;100474.34;5057188;28;20029;-70
2021/12/24 01:45:28;;;;;;;17.13;8.43;;;;;;;18.36;53.09;100474.72;5041216;28;20176;-71
2021/12/24 01:47:59;;;;;;;28.43;8.53;;;;;;;18.66;52.72;100469.72;5047811;28;20025;-70
2021/12/24 01:50:27;;;;;;;19.97;7.77;;;;;;;18.45;53.78;100472.47;5043309;28;20059;-70
2021/12/24 01:52:55;;;;;;;20.93;8.93;;;;;;;18.02;55.18;100474.50;5047415;28;20024;-70
2021/12/24 01:55:21;;;;;;;23.90;8.57;;;;;;;19.03;50.50;100473.19;5068830;28;20033;-70
2021/12/24 01:57:47;;;;;;;19.23;8.03;;;;;;;18.86;51.42;100467.84;5068390;28;20494;-70
2021/12/24 02:00:25;;;;;;;15.30;7.50;;;;;;;18.65;51.60;100475.94;5037253;28;20092;-70
2021/12/24 02:02:51;;;;;;;28.83;9.27;;;;;;;19.16;50.57;100476.03;5058913;28;20017;-70
2021/12/24 02:05:17;;;;;;;23.27;8.40;;;;;;;18.67;51.94;100481.13;5047350;28;20055;-70
2021/12/24 02:07:42;;;;;;;23.37;8.10;;;;;;;18.54;51.46;100487.03;5054104;28;20476;-70
2021/12/24 02:10:12;;;;;;;23.00;7.33;;;;;;;18.53;52.80;100484.47;5040655;28;20017;-70
2021/12/24 02:12:38;;;;;;;26.17;8.87;;;;;;;19.04;50.16;100482.84;5034934;28;20457;-70
2021/12/24 02:15:08;;;;;;;17.37;7.53;;;;;;;19.00;49.26;100483.94;5059069;28;20045;-70
2021/12/24 02:17:57;;;;;;;21.53;8.30;;;;;;;19.02;49.36;100495.31;5050566;28;20025;-70
2021/12/24 02:28:39;;;;;;;20.83;7.20;;;;;;;17.98;52.45;100488.81;5063308;28;20047;-70
2021/12/24 02:31:11;;;;;;;16.13;6.90;;;;;;;19.76;47.94;100478.19;5070789;28;20039;-70
2021/12/24 02:33:36;;;;;;;19.03;7.30;;;;;;;18.39;50.97;100488.63;5038923;28;20025;-70
2021/12/24 02:36:03;;;;;;;17.53;6.27;;;;;;;17.17;53.94;100486.19;5052452;28;20033;-70
2021/12/24 02:38:29;;;;;;;10.47;5.90;;;;;;;18.34;49.80;100482.72;5043618;28;20040;-71
2021/12/24 02:40:54;;;;;;;14.53;5.57;;;;;;;18.31;50.02;100485.50;5049433;28;20070;-70
2021/12/24 02:43:22;;;;;;;20.43;7.23;;;;;;;18.50;51.06;100476.69;5036864;28;20033;-70
2021/12/24 02:45:49;;;;;;;18.70;7.67;;;;;;;18.94;48.57;100476.28;5068144;28;20118;-70
2021/12/24 02:54:00;;;;;;;17.80;7.63;;;;;;;18.52;51.43;100477.44;5057271;28;20096;-70
2021/12/24 02:56:32;;;;;;;16.87;6.23;;;;;;;18.71;48.33;100478.28;5047743;28;20035;-70
2021/12/24 02:59:00;;;;;;;13.23;6.20;;;;;;;18.48;49.83;100482.91;5065285;28;20068;-70
2021/12/24 03:01:30;;;;;;;12.73;6.17;;;;;;;17.42;53.30;100478.06;5046925;28;20060;-70
2021/12/24 03:03:56;;;;;;;18.60;5.80;;;;;;;19.16;49.21;100468.09;5038650;28;20050;-70
2021/12/24 03:06:24;;;;;;;19.43;5.57;;;;;;;18.65;49.30;100484.72;5038933;28;20037;-70
2021/12/24 03:08:50;;;;;;;15.63;7.00;;;;;;;18.81;48.67;100484.81;5056116;28;20115;-70
2021/12/24 03:11:16;;;;;;;14.00;5.47;;;;;;;19.14;47.73;100476.13;5050955;28;20548;-70
2021/12/24 03:13:42;;;;;;;16.97;5.33;;;;;;;17.68;52.76;100475.19;5058690;28;20028;-70
2021/12/24 03:16:08;;;;;;;19.17;6.03;;;;;;;18.19;52.34;100472.84;5044699;28;20072;-71
2021/12/24 03:18:36;;;;;;;14.53;5.87;;;;;;;18.24;50.76;100468.22;5044525;28;20078;-70
2021/12/24 03:21:16;;;;;;;14.37;6.30;;;;;;;17.73;52.69;100471.38;5066525;28;20085;-70
2021/12/24 03:24:33;;;;;;;14.00;5.90;;;;;;;18.41;49.37;100481.50;5037186;28;20066;-70
2021/12/24 03:26:38;;;;;;;16.67;5.90;;;;;;;17.86;51.92;100484.94;5067453;28;20556;-70
2021/12/24 03:29:08;;;;;;;13.33;5.60;;;;;;;19.55;47.46;100477.56;5069836;28;20082;-71
2021/12/24 03:31:36;;;;;;;13.47;6.10;;;;;;;19.27;47.18;100480.78;5036364;28;20382;-70
2021/12/24 03:34:03;;;;;;;19.10;6.27;;;;;;;17.98;51.74;100483.50;5034937;28;20021;-70
2021/12/24 03:36:29;;;;;;;12.60;5.57;;;;;;;17.97;50.50;100477.38;5041288;28;20563;-70
2021/12/24 03:38:56;;;;;;;21.20;6.27;;;;;;;19.68;46.87;100475.09;5046870;28;20032;-71
2021/12/24 03:41:22;;;;;;;14.73;6.40;;;;;;;18.68;49.21;100478.41;5034613;28;20067;-70
2021/12/24 03:43:47;;;;;;;17.83;5.77;;;;;;;18.76;48.62;100491.28;5050569;28;20389;-70
2021/12/24 03:46:16;;;;;;;8.30;4.20;;;;;;;17.78;51.45;100487.91;5042967;28;20039;-70
2021/12/24 03:56:23;;;;;;;14.70;5.60;;;;;;;19.01;47.53;100475.03;5063424;28;20047;-70
2021/12/24 03:58:48;;;;;;;12.30;4.90;;;;;;;18.50;49.01;100484.63;5045693;28;20025;-70
2021/12/24 04:01:13;;;;;;;16.37;5.23;;;;;;;18.78;47.65;100479.69;5038178;28;20040;-70
2021/12/24 04:03:39;;;;;;;16.83;4.80;;;;;;;18.78;48.86;100479.69;5046133;28;20086;-71
2021/12/24 04:06:04;;;;;;;14.77;4.63;;;;;;;18.43;49.44;100474.31;5058460;28;20037;-70
2021/12/24 04:08:30;;;;;;;16.97;4.80;;;;;;;18.37;49.63;100482.56;5048902;28;20033;-70
2021/12/24 04:10:56;;;;;;;9.67;4.10;;;;;;;18.48;50.17;100482.91;5056844;28;20028;-70
2021/12/24 04:13:21;;;;;;;16.10;4.90;;;;;;;17.59;52.80;100481.75;5049795;28;20035;-70
2021/12/24 04:15:47;;;;;;;16.43;4.37;;;;;;;17.80;50.81;100480.78;5046042;28;20028;-70
2021/12/24 04:18:22;;;;;;;16.13;4.57;;;;;;;19.28;47.35;100472.75;5039777;28;20032;-70
2021/12/24 04:26:15;;;;;;;12.03;3.87;;;;;;;18.93;47.91;100479.88;5052141;28;20083;-70
2021/12/24 04:28:41;;;;;;;12.67;3.90;;;;;;;17.63;51.17;100481.53;5044649;28;20040;-70
2021/12/24 04:31:06;;;;;;;11.50;3.07;;;;;;;17.31;50.50;100482.97;5045629;28;20028;-70
2021/12/24 04:33:36;;;;;;;10.30;3.53;;;;;;;17.87;50.90;100485.78;5036272;28;20464;-70
2021/12/24 04:36:21;;;;;;;18.47;4.00;;;;;;;18.98;47.30;100496.38;5064682;28;20032;-70
2021/12/24 05:03:10;;;;;;;20.27;4.73;;;;;;;19.39;46.57;100480.16;5061713;28;20396;-70
2021/12/24 05:05:48;;;;;;;15.17;3.83;;;;;;;18.61;46.88;100487.59;5047785;28;20106;-70
2021/12/24 05:08:19;;;;;;;19.80;4.33;;;;;;;17.23;51.50;100485.94;5040979;28;20106;-70
2021/12/24 05:10:45;;;;;;;21.23;3.80;;;;;;;19.12;45.97;100477.13;5048177;28;20033;-70
2021/12/24 05:13:13;;;;;;;13.57;3.63;;;;;;;18.02;49.26;100490.38;5031398;28;20036;-70
2021/12/24 05:15:41;;;;;;;21.07;3.40;;;;;;;18.39;47.27;100483.34;5053781;28;20463;-71
2021/12/24 05:23:24;;;;;;;13.50;3.50;;;;;;;19.20;45.91;100471.47;5065005;28;20064;-70
2021/12/24 05:25:50;;;;;;;12.10;3.33;;;;;;;18.31;46.92;100485.50;5049968;28;20032;-70
2021/12/24 05:28:16;;;;;;;13.40;3.53;;;;;;;18.73;46.73;100496.75;5042011;28;20024;-70
2021/12/24 05:30:42;;;;;;;15.67;4.03;;;;;;;19.17;45.99;100479.56;5071496;28;20024;-70
2021/12/24 05:33:12;;;;;;;9.30;3.90;;;;;;;19.11;46.00;100488.66;5067964;28;20029;-70
2021/12/24 05:35:37;;;;;;;9.50;2.43;;;;;;;16.91;51.84;100496.09;5047109;28;20419;-71
2021/12/24 05:38:02;;;;;;;9.53;3.00;;;;;;;18.57;47.78;100496.63;5041976;28;20032;-70
2021/12/24 05:40:28;;;;;;;14.27;2.93;;;;;;;18.03;48.40;100497.38;5067510;28;20491;-70
2021/12/24 05:42:53;;;;;;;14.27;3.17;;;;;;;17.77;50.62;100496.75;5047804;28;20035;-70
2021/12/24 05:45:19;;;;;;;21.53;4.03;;;;;;;17.69;48.89;100493.59;5057669;28;20055;-70
2021/12/24 05:47:44;;;;;;;14.57;2.93;;;;;;;18.62;45.98;100498.09;5066892;28;20130;-70
2021/12/24 05:50:09;;;;;;;13.00;3.17;;;;;;;19.40;44.05;100489.81;5041858;28;20070;-70
2021/12/24 05:52:35;;;;;;;26.37;3.77;;;;;;;18.97;45.44;100502.63;5068594;28;20488;-70
2021/12/24 05:55:02;;;;;;;15.43;3.17;;;;;;;19.90;43.33;100489.88;5063462;28;20036;-70
2021/12/24 05:57:28;;;;;;;13.87;3.13;;;;;;;20.17;42.75;100488.34;5052583;28;20037;-70
2021/12/24 05:59:54;;;;;;;15.07;3.33;;;;;;;19.94;42.73;100486.97;5072362;28;20111;-70
2021/12/24 06:02:19;;;;;;;14.83;3.53;;;;;;;19.99;42.65;100497.34;5043259;28;20159;-70
2021/12/24 06:04:45;;;;;;;16.23;3.30;;;;;;;17.97;46.59;100503.81;5066838;28;20077;-70
2021/12/24 06:07:11;;;;;;;15.73;3.20;;;;;;;18.01;47.64;100504.56;5052540;28;20044;-70
2021/12/24 06:09:36;;;;;;;7.87;2.87;;;;;;;18.10;46.82;100500.59;5050502;28;20032;-70
2021/12/24 06:12:01;;;;;;;16.93;3.40;;;;;;;18.58;46.06;100504.47;5045565;28;20494;-70
2021/12/24 06:14:27;;;;;;;18.37;3.63;;;;;;;18.60;46.63;100499.09;5043611;28;20435;-70
2021/12/24 06:17:03;;;;;;;17.00;3.57;;;;;;;19.54;42.85;100498.84;5043562;28;20028;-70
2021/12/24 06:19:29;;;;;;;20.40;4.07;;;;;;;20.62;41.72;100493.81;5064787;28;20430;-70
2021/12/24 06:21:56;;;;;;;12.73;3.13;;;;;;;19.92;42.59;100503.91;5038564;28;20025;-70
2021/12/24 06:24:22;;;;;;;19.03;4.00;;;;;;;19.81;43.50;100501.81;5061672;28;20040;-70
2021/12/24 06:26:49;;;;;;;20.30;3.67;;;;;;;20.28;42.37;100505.50;5042981;28;20102;-71
2021/12/24 06:29:15;;;;;;;11.03;3.50;;;;;;;19.27;43.89;100502.00;5039464;28;20033;-70
2021/12/24 06:31:40;;;;;;;16.20;3.53;;;;;;;19.46;42.88;100502.75;5054698;28;20366;-70
2021/12/24 06:34:07;;;;;;;16.03;3.60;;;;;;;18.75;45.54;100501.03;5060188;28;20056;-70
2021/12/24 06:36:36;;;;;;;15.80;3.00;;;;;;;18.97;45.20;100510.56;5037369;28;20036;-70
2021/12/24 06:39:03;;;;;;;17.23;3.23;;;;;;;18.35;46.11;100505.59;5049784;28;20040;-70
2021/12/24 06:41:28;;;;;;;16.90;3.40;;;;;;;19.54;42.99;100506.81;5044322;28;20027;-70
2021/12/24 06:43:54;;;;;;;23.97;6.47;;;;;;;18.19;46.31;100517.81;5047482;28;20025;-70
2021/12/24 06:46:19;;;;;;;15.47;3.37;;;;;;;19.22;44.11;100509.31;5047323;28;20043;-70
2021/12/24 06:48:45;;;;;;;17.33;3.37;;;;;;;18.73;44.37;100505.53;5043647;28;20495;-70
2021/12/24 06:51:11;;;;;;;16.00;3.20;;;;;;;18.22;46.73;100496.53;5043209;28;20048;-70
2021/12/24 06:53:36;;;;;;;17.40;3.20;;;;;;;18.92;44.45;100494.06;5042459;28;20035;-70
2021/12/24 06:56:03;;;;;;;17.13;3.73;;;;;;;18.42;47.82;100493.81;5037936;28;20040;-70
2021/12/24 06:58:28;;;;;;;11.80;3.13;;;;;;;17.01;49.88;100495.69;5046945;28;20021;-71
2021/12/24 07:00:54;;;;;;;16.03;2.80;;;;;;;18.95;45.28;100493.91;5054997;28;20403;-70
2021/12/24 07:03:19;;;;;;;11.50;2.33;;;;;;;17.63;47.08;100491.25;5043276;28;20029;-70
2021/12/24 07:05:44;;;;;;;16.03;3.27;;;;;;;18.15;46.12;100501.25;5048188;28;20036;-70
2021/12/24 07:08:10;;;;;;;19.53;4.07;;;;;;;17.92;46.82;100499.69;5049488;28;20029;-70
2021/12/24 07:10:35;;;;;;;11.43;2.73;;;;;;;18.26;45.62;100495.47;5044777;28;20111;-70
2021/12/24 07:13:00;;;;;;;13.77;2.47;;;;;;;17.93;46.84;100496.13;5044876;28;20036;-70
2021/12/24 07:15:26;;;;;;;10.27;2.90;;;;;;;18.13;45.65;100503.97;5048998;28;20037;-70
2021/12/24 07:17:51;;;;;;;9.37;3.07;;;;;;;18.79;45.12;100493.75;5066366;28;20023;-70
2021/12/24 07:20:16;;;;;;;15.13;2.53;;;;;;;17.55;47.00;100502.16;5047447;28;20558;-70
2021/12/24 07:22:42;;;;;;;10.87;2.40;;;;;;;17.72;46.81;100487.31;5053586;28;20047;-70
2021/12/24 07:25:08;;;;;;;12.27;2.67;;;;;;;17.84;46.37;100484.13;5064313;28;20024;-70
2021/12/24 07:27:34;;;;;;;16.90;3.90;;;;;;;17.88;47.68;100492.78;5046536;28;20027;-70
2021/12/24 07:30:00;;;;;;;16.07;3.07;;;;;;;18.89;45.93;100494.19;5067680;28;20102;-70
2021/12/24 07:32:26;;;;;;;13.30;2.40;;;;;;;18.06;47.16;100497.25;5052016;28;20492;-70
2021/12/24 07:34:51;;;;;;;15.53;2.37;;;;;;;18.36;44.79;100499.38;5066061;28;20035;-70
2021/12/24 07:37:16;;;;;;;12.53;2.93;;;;;;;17.52;47.80;100506.75;5046575;28;20031;-70
2021/12/24 07:39:42;;;;;;;16.23;2.60;;;;;;;17.63;48.48;100500.03;5046016;28;20020;-70
2021/12/24 07:42:07;;;;;;;11.60;2.30;;;;;;;18.52;45.16;100496.84;5045435;28;20032;-70
2021/12/24 07:44:35;;;;;;;16.40;2.37;;;;;;;17.72;48.20;100498.78;5039349;28;20115;-70
2021/12/24 07:47:03;;;;;;;15.57;2.53;;;;;;;17.97;46.21;100495.88;5036529;28;20043;-70
2021/12/24 07:54:27;;;;;;;23.20;4.35;;;;;;;18.54;44.25;100496.78;5065273;28;20404;-70
2021/12/24 07:56:53;;;;;;;15.13;3.13;;;;;;;19.48;43.12;100487.63;5063766;28;20427;-70
2021/12/24 07:59:18;;;;;;;16.03;2.07;;;;;;;18.47;44.25;100494.41;5050937;28;20020;-71
2021/12/24 08:01:46;;;;;;;10.20;2.13;;;;;;;18.69;44.41;100500.47;5056073;28;20044;-70
2021/12/24 08:04:12;;;;;;;15.50;2.37;;;;;;;18.50;45.07;100501.34;5052460;28;20029;-70
2021/12/24 08:06:38;;;;;;;14.87;2.80;;;;;;;19.58;42.54;100497.75;5033561;28;20021;-70
2021/12/24 08:09:06;;;;;;;20.07;3.13;;;;;;;19.63;42.63;100508.94;5036656;28;20082;-70
2021/12/24 08:11:33;;;;;;;9.03;1.90;;;;;;;20.09;42.00;100511.81;5035880;28;20488;-70
2021/12/24 08:14:00;;;;;;;25.57;3.13;;;;;;;19.32;42.80;100511.41;5048023;28;20038;-70
2021/12/24 08:16:26;;;;;;;12.43;2.83;;;;;;;19.65;43.28;100502.63;5057199;28;20443;-70
2021/12/24 08:18:51;;;;;;;11.33;2.93;;;;;;;19.27;44.37;100508.13;5043376;28;20087;-70
2021/12/24 08:21:17;;;;;;;18.37;2.53;;;;;;;19.29;42.92;100497.47;5047900;28;20031;-70
2021/12/24 08:23:45;;;;;;;18.00;2.73;;;;;;;19.42;43.28;100500.34;5041352;28;20120;-70
2021/12/24 08:26:10;;;;;;;21.37;2.83;;;;;;;19.60;42.64;100501.16;5057280;28;20028;-70
2021/12/24 08:28:36;;;;;;;11.67;1.87;;;;;;;19.79;42.38;100493.94;5036628;28;20550;-70
2021/12/24 08:31:04;;;;;;;15.00;3.10;;;;;;;20.81;40.45;100501.59;5037577;28;20036;-70
2021/12/24 08:33:30;;;;;;;21.27;2.40;;;;;;;19.93;42.23;100503.81;5058296;28;20484;-70
2021/12/24 08:35:55;;;;;;;9.57;2.43;;;;;;;19.37;42.52;100497.94;5042704;28;20051;-69
2021/12/24 08:38:21;;;;;;;15.37;3.40;;;;;;;19.10;44.21;100511.66;5061377;28;20116;-70
2021/12/24 08:40:46;;;;;;;11.63;2.20;;;;;;;19.56;42.65;100502.25;5065635;28;20082;-70
2021/12/24 08:43:12;;;;;;;9.87;1.90;;;;;;;18.11;46.99;100505.81;5036496;28;20039;-70
2021/12/24 08:45:37;;;;;;;11.03;2.93;;;;;;;18.94;44.71;100498.31;5064267;28;20032;-70
2021/12/24 08:48:04;;;;;;;11.90;2.70;;;;;;;19.17;44.62;100500.75;5047976;28;20126;-70
2021/12/24 08:50:29;;;;;;;18.67;3.10;;;;;;;18.65;46.68;100500.59;5062129;28;20042;-70
2021/12/24 08:52:54;;;;;;;17.13;3.10;;;;;;;19.11;45.04;100505.44;5067135;28;20029;-70
2021/12/24 08:55:20;;;;;;;12.07;2.37;;;;;;;18.45;45.88;100509.53;5054970;28;20103;-70
2021/12/24 08:57:45;;;;;;;14.50;3.60;;;;;;;19.11;43.99;100518.69;5040436;28;20032;-70
2021/12/24 09:00:13;;;;;;;18.27;3.00;;;;;;;20.09;42.53;100506.50;5041208;28;20158;-70
2021/12/24 09:02:39;;;;;;;13.33;3.60;;;;;;;18.98;45.64;100512.28;5035106;28;20036;-69
2021/12/24 09:05:06;;;;;;;12.17;4.20;;;;;;;19.02;44.67;100513.84;5040036;28;20091;-70
2021/12/24 09:07:31;;;;;;;19.60;4.00;;;;;;;18.40;44.88;100505.38;5043343;28;20033;-69
2021/12/24 09:09:57;;;;;;;15.10;4.07;;;;;;;19.46;43.32;100501.91;5069041;28;20028;-68
2021/12/24 09:12:22;;;;;;;7.80;3.30;;;;;;;18.34;45.17;100506.53;5043076;28;20481;-68
2021/12/24 09:14:47;;;;;;;15.23;3.53;;;;;;;20.26;42.50;100504.69;5041608;28;20027;-68
2021/12/24 09:17:13;;;;;;;15.67;4.03;;;;;;;18.89;45.64;100512.72;5059473;28;20053;-69
2021/12/24 09:19:45;;;;;;;15.20;3.70;;;;;;;19.72;43.24;100497.84;5043093;28;20733;-69
2021/12/24 09:22:16;;;;;;;10.48;3.03;;;;;;;19.33;43.15;100507.00;5068770;28;20090;-69
2021/12/24 09:24:42;;;;;;;15.03;4.00;;;;;;;19.19;43.72;100499.72;5056215;28;20049;-69
2021/12/24 09:27:08;;;;;;;12.47;3.13;;;;;;;20.11;41.57;100504.63;5038495;28;20033;-69
2021/12/24 09:29:33;;;;;;;11.13;3.87;;;;;;;20.27;41.58;100493.16;5040353;28;20877;-69
2021/12/24 09:31:59;;;;;;;12.03;3.10;;;;;;;19.73;43.32;100493.41;5059511;28;20029;-69
2021/12/24 09:34:24;;;;;;;12.70;3.40;;;;;;;18.16;45.96;100508.25;5064017;28;20032;-68
2021/12/24 09:36:49;;;;;;;12.83;3.00;;;;;;;19.64;42.68;100495.59;5056178;28;20107;-68
2021/12/24 09:39:16;;;;;;;20.07;2.93;;;;;;;18.65;44.95;100502.41;5042341;28;20095;-69
2021/12/24 09:41:42;;;;;;;9.70;3.33;;;;;;;19.70;43.16;100504.19;5043184;28;20033;-69
2021/12/24 09:44:08;;;;;;;18.10;3.83;;;;;;;20.24;42.25;100496.00;5060611;28;20097;-69
2021/12/24 09:46:35;;;;;;;16.83;4.20;;;;;;;19.36;42.82;100490.91;5039860;28;20083;-68
2021/12/24 09:49:01;;;;;;;15.00;3.93;;;;;;;18.68;44.86;100498.75;5040455;28;20483;-68
2021/12/24 09:51:27;;;;;;;13.30;3.87;;;;;;;18.88;44.26;100500.44;5068939;28;20060;-69
2021/12/24 09:53:54;;;;;;;8.57;3.00;;;;;;;17.03;49.19;100514.97;5043402;28;20032;-68
2021/12/24 09:56:21;;;;;;;13.63;3.90;;;;;;;17.43;48.59;100503.56;5055967;28;21538;-68
2021/12/24 09:58:46;;;;;;;13.53;3.77;;;;;;;18.40;46.10;100502.75;5045046;28;21452;-69
2021/12/24 10:01:40;;;;;;;10.03;4.10;;;;;;;20.03;42.42;100501.53;5036580;28;20032;-69
2021/12/24 10:04:08;;;;;;;12.77;3.70;;;;;;;19.73;42.55;100502.22;5044866;28;20040;-69
2021/12/24 10:06:34;;;;;;;16.67;3.37;;;;;;;19.58;43.44;100500.41;5038183;28;20032;-69
2021/12/24 10:09:18;;;;;;;20.20;4.93;;;;;;;18.87;44.73;100506.63;5045100;28;20496;-69
2021/12/24 10:11:49;;;;;;;15.03;4.37;;;;;;;19.79;43.04;100496.56;5042386;28;20028;-68
2021/12/24 10:14:20;;;;;;;18.23;4.60;;;;;;;18.98;43.93;100507.81;5059676;28;20416;-69
2021/12/24 10:16:49;;;;;;;10.87;3.60;;;;;;;19.52;43.37;100511.31;5044285;28;20456;-71
2021/12/24 10:19:16;;;;;;;20.23;3.40;;;;;;;18.17;46.80;100514.41;5039847;28;20492;-68
2021/12/24 10:21:44;;;;;;;11.87;3.93;;;;;;;20.45;42.05;100499.22;5036772;28;20480;-69
2021/12/24 10:24:14;;;;;;;15.87;4.50;;;;;;;18.82;44.69;100502.44;5036180;28;20048;-69
2021/12/24 10:26:46;;;;;;;10.00;3.83;;;;;;;18.12;46.92;100512.84;5060065;28;20111;-69
2021/12/24 10:29:27;;;;;;;17.67;3.63;;;;;;;19.95;42.77;100493.16;5046105;28;20051;-69
2021/12/24 10:31:55;;;;;;;18.43;3.90;;;;;;;19.81;42.74;100501.81;5044402;28;20060;-69
2021/12/24 10:34:29;;;;;;;15.60;3.57;;;;;;;18.85;44.20;100503.19;5065545;28;20431;-69
2021/12/24 10:37:03;;;;;;;11.90;3.10;;;;;;;18.63;45.71;100493.69;5041615;28;20036;-68
2021/12/24 10:39:30;;;;;;;16.30;4.40;;;;;;;18.67;44.99;100497.91;5058618;28;20419;-68
2021/12/24 10:41:57;;;;;;;8.87;3.13;;;;;;;18.80;44.38;100493.69;5039185;28;20029;-69
2021/12/24 10:44:23;;;;;;;13.77;3.33;;;;;;;18.36;45.40;100499.38;5052814;28;20534;-70
2021/12/24 10:47:04;;;;;;;21.67;3.67;;;;;;;19.82;42.96;100487.63;5042880;28;20036;-69
2021/12/24 10:55:02;;;;;;;39.80;4.20;;;;;;;19.78;42.51;100483.41;5062212;28;20032;-70
2021/12/24 10:57:29;;;;;;;;;;;;;;;19.07;44.35;100489.75;5039344;28;20035;-69
2021/12/24 10:59:59;;;;;;;10.50;2.37;;;;;;;18.00;46.82;100486.97;5064917;28;19924;-70
2021/12/24 11:02:31;;;;;;;9.87;2.93;;;;;;;19.20;43.59;100482.06;5038977;28;20402;-71
2021/12/24 11:04:57;;;;;;;14.75;4.35;;;;;;;19.56;42.97;100486.34;5042623;28;20389;-70
2021/12/24 11:07:38;;;;;;;15.97;3.97;;;;;;;20.14;41.76;100487.66;5043881;28;20496;-69
2021/12/24 11:10:12;;;;;;;15.53;3.23;;;;;;;19.36;43.76;100490.91;5041255;28;20021;-69
2021/12/24 11:12:39;;;;;;;14.73;3.10;;;;;;;18.56;45.26;100490.47;5044673;28;20024;-69
2021/12/24 11:15:28;;;;;;;12.80;2.80;;;;;;;18.46;45.63;100487.44;5042430;28;20020;-69
2021/12/24 11:18:02;;;;;;;10.17;3.17;;;;;;;19.48;43.90;100484.09;5042197;28;20029;-69
2021/12/24 11:20:29;;;;;;;13.37;2.80;;;;;;;18.66;45.29;100498.81;5048572;28;20042;-69
2021/12/24 11:23:07;;;;;;;11.17;2.37;;;;;;;19.26;44.98;100492.31;5046876;28;20139;-69
2021/12/24 11:25:36;;;;;;;13.57;3.03;;;;;;;19.90;42.09;100481.94;5043717;28;20097;-69
2021/12/24 11:28:03;;;;;;;13.57;3.13;;;;;;;19.46;43.21;100489.47;5033552;28;20052;-69
2021/12/24 11:30:30;;;;;;;16.13;2.30;;;;;;;18.37;45.21;100498.44;5054119;28;20113;-69
2021/12/24 11:32:56;;;;;;;12.27;2.30;;;;;;;20.38;41.32;100490.75;5042980;28;20028;-69
2021/12/24 11:35:22;;;;;;;18.53;4.67;;;;;;;18.95;44.42;100496.56;5057946;28;20115;-69
2021/12/24 11:37:49;;;;;;;10.63;2.80;;;;;;;19.32;44.04;100492.00;5046305;28;20024;-69
2021/12/24 11:40:17;;;;;;;13.83;3.37;;;;;;;18.56;46.05;100494.91;5044200;28;20180;-69
2021/12/24 11:42:50;;;;;;;8.53;2.67;;;;;;;19.15;44.13;100487.56;5059634;28;20060;-69
2021/12/24 11:45:15;;;;;;;17.55;3.17;;;;;;;19.24;44.01;100480.97;5061897;28;20052;-69
2021/12/24 11:47:41;;;;;;;9.93;3.03;;;;;;;18.66;44.90;100485.59;5040083;28;20052;-69
2021/12/24 11:50:07;;;;;;;12.87;3.03;;;;;;;17.15;49.08;100481.94;5049614;28;20391;-69
2021/12/24 11:52:33;;;;;;;10.57;2.70;;;;;;;18.42;45.90;100483.22;5042299;28;20017;-69
2021/12/24 11:54:59;;;;;;;21.33;3.43;;;;;;;18.23;45.81;100488.53;5067155;28;20545;-69
2021/12/24 11:57:25;;;;;;;10.60;2.27;;;;;;;18.04;47.23;100477.06;5068307;28;20056;-69
2021/12/24 11:59:51;;;;;;;10.93;2.87;;;;;;;18.18;47.04;100481.75;5036265;28;20062;-69
2021/12/24 12:02:47;;;;;;;13.77;3.10;;;;;;;19.51;43.68;100476.00;5031341;28;20032;-69
2021/12/24 12:05:16;;;;;;;13.97;3.03;;;;;;;19.44;44.09;100472.81;5065296;28;20475;-69
2021/12/24 12:07:41;;;;;;;18.77;2.80;;;;;;;18.21;46.18;100481.59;5064905;28;20464;-69
2021/12/24 12:10:08;;;;;;;11.93;2.97;;;;;;;18.76;46.02;100476.25;5069625;28;20641;-69
2021/12/24 12:12:34;;;;;;;17.03;3.63;;;;;;;19.20;45.01;100468.81;5044837;28;20029;-69
2021/12/24 12:15:28;;;;;;;17.97;3.67;;;;;;;18.61;47.31;100472.56;5063443;28;20173;-70
2021/12/24 12:18:04;;;;;;;;;;;;;;;20.04;42.55;100468.75;5033596;28;20099;-69
2021/12/24 12:20:45;;;;;;;18.93;3.07;;;;;;;19.83;43.03;100463.69;5052628;28;19916;-69
2021/12/24 12:26:34;;;;;;;11.60;3.93;;;;;;;19.28;44.20;100471.91;5041809;28;20037;-69
2021/12/24 12:29:41;;;;;;;9.70;2.70;;;;;;;19.65;43.83;100469.97;5039659;28;20047;-69
2021/12/24 12:32:12;;;;;;;11.60;3.33;;;;;;;18.79;45.88;100481.41;5007672;28;20042;-69
2021/12/24 12:34:43;;;;;;;10.07;3.30;;;;;;;18.82;45.21;100491.84;5041317;28;20034;-69
2021/12/24 12:37:13;;;;;;;8.87;2.57;;;;;;;18.04;47.29;100488.53;5040130;28;20044;-69
2021/12/24 12:39:39;;;;;;;13.53;4.30;;;;;;;20.53;42.21;100473.09;5036527;28;20030;-69
2021/12/24 12:42:05;;;;;;;17.63;3.77;;;;;;;19.03;45.32;100472.31;5038587;28;20036;-68
2021/12/24 12:44:33;;;;;;;20.43;4.40;;;;;;;19.24;45.14;100470.38;5042442;28;20241;-69
2021/12/24 12:47:10;;;;;;;16.60;2.93;;;;;;;18.20;46.99;100478.06;5042993;28;20397;-69
2021/12/24 12:49:36;;;;;;;19.13;2.87;;;;;;;18.44;46.40;100481.34;5040434;28;20033;-69
2021/12/24 12:52:16;;;;;;;14.97;4.13;;;;;;;18.65;46.89;100467.97;5043311;28;20076;-69
2021/12/24 12:54:48;;;;;;;13.13;3.00;;;;;;;19.55;43.89;100463.44;5037671;28;20021;-69
2021/12/24 12:57:32;;;;;;;15.87;3.30;;;;;;;20.10;42.05;100465.78;5044348;28;20083;-69
2021/12/24 13:00:07;;;;;;;14.47;3.07;;;;;;;19.72;43.64;100462.53;5040743;28;20028;-69
2021/12/24 13:02:58;;;;;;;13.60;3.20;;;;;;;18.90;45.14;100469.44;5045593;28;20404;-69
2021/12/24 13:05:26;;;;;;;15.50;3.70;;;;;;;20.25;42.12;100464.06;5048277;28;20055;-69
2021/12/24 13:07:52;;;;;;;9.20;4.10;;;;;;;19.69;42.98;100460.03;5044487;28;20409;-69
2021/12/24 13:10:18;;;;;;;16.07;3.83;;;;;;;19.96;43.45;100463.88;5046601;28;20487;-69
2021/12/24 13:12:44;;;;;;;22.77;3.73;;;;;;;19.11;44.96;100462.19;5040848;28;20031;-69
2021/12/24 13:15:16;;;;;;;18.53;5.50;;;;;;;19.85;42.61;100460.09;5050086;28;20091;-69